createdAt,value
2023-04-21T00:00:16.662Z,17.67
2023-04-21T00:02:46.546Z,20.07
2023-04-21T00:05:15.295Z,19.33
2023-04-21T00:07:44.732Z,19.17
2023-04-21T00:10:13.283Z,17.63
2023-04-21T00:12:41.342Z,20.77
2023-04-21T00:15:10.426Z,18.30
2023-04-21T00:17:39.159Z,19.60
2023-04-21T00:20:10.628Z,15.97
2023-04-21T00:22:38.708Z,16.17
2023-04-21T00:25:09.100Z,17.00
2023-04-21T00:27:37.326Z,14.43
2023-04-21T00:30:06.894Z,15.33
2023-04-21T00:32:35.125Z,17.63
2023-04-21T00:35:03.259Z,19.83
2023-04-21T00:37:31.787Z,14.93
2023-04-21T00:39:59.829Z,18.70
2023-04-21T00:42:29.324Z,14.67
2023-04-21T00:44:57.410Z,15.93
2023-04-21T00:47:25.584Z,17.53
2023-04-21T00:49:53.793Z,14.90
2023-04-21T00:52:22.201Z,16.73
2023-04-21T00:54:50.887Z,18.73
2023-04-21T00:57:19.059Z,16.47
2023-04-21T00:59:51.625Z,13.80
2023-04-21T01:02:20.560Z,17.43
2023-04-21T01:04:49.378Z,16.47
2023-04-21T01:07:17.439Z,14.80
2023-04-21T01:09:45.467Z,17.07
2023-04-21T01:12:14.570Z,18.30
2023-04-21T01:14:43.037Z,17.67
2023-04-21T01:17:13.552Z,14.57
2023-04-21T01:19:43.693Z,17.50
2023-04-21T01:22:15.278Z,12.37
2023-04-21T01:24:45.394Z,18.20
2023-04-21T01:27:16.497Z,20.30
2023-04-21T01:29:46.660Z,19.17
2023-04-21T01:32:18.189Z,17.43
2023-04-21T01:34:47.320Z,14.50
2023-04-21T01:37:19.003Z,19.90
2023-04-21T01:39:52.049Z,14.33
2023-04-21T01:42:21.287Z,18.10
2023-04-21T01:44:49.730Z,17.33
2023-04-21T01:47:19.269Z,18.23
2023-04-21T01:49:47.568Z,18.97
2023-04-21T01:52:17.219Z,14.97
2023-04-21T01:54:46.853Z,17.43
2023-04-21T01:57:15.609Z,17.57
2023-04-21T01:59:43.801Z,18.90
2023-04-21T02:02:12.595Z,15.93
2023-04-21T02:04:40.834Z,18.77
2023-04-21T02:07:09.015Z,15.97
2023-04-21T02:09:38.424Z,18.00
2023-04-21T02:12:07.009Z,17.83
2023-04-21T02:14:35.116Z,18.40
2023-04-21T02:17:03.872Z,18.53
2023-04-21T02:19:32.276Z,14.23
2023-04-21T02:22:00.326Z,19.53
2023-04-21T02:24:28.428Z,18.80
2023-04-21T02:26:58.602Z,19.07
2023-04-21T02:29:29.599Z,18.57
2023-04-21T02:32:05.258Z,23.13
2023-04-21T02:34:42.933Z,15.40
2023-04-21T02:37:11.023Z,16.00
2023-04-21T02:39:39.068Z,16.10
2023-04-21T02:42:08.471Z,19.47
2023-04-21T02:44:38.632Z,20.97
2023-04-21T02:47:06.796Z,16.40
2023-04-21T02:49:34.837Z,17.30
2023-04-21T02:52:02.981Z,15.10
2023-04-21T02:54:31.014Z,19.53
2023-04-21T02:56:59.032Z,19.37
2023-04-21T02:59:29.055Z,19.03
2023-04-21T03:01:57.092Z,18.67
2023-04-21T03:04:25.512Z,16.97
2023-04-21T03:06:53.947Z,18.60
2023-04-21T03:09:22.023Z,14.87
2023-04-21T03:11:50.131Z,17.73
2023-04-21T03:14:19.953Z,17.10
2023-04-21T03:16:49.380Z,13.50
2023-04-21T03:19:17.709Z,14.73
2023-04-21T03:21:46.416Z,18.37
2023-04-21T03:24:14.609Z,18.10
2023-04-21T03:26:42.823Z,14.07
2023-04-21T03:29:10.875Z,13.57
2023-04-21T03:31:38.977Z,15.77
2023-04-21T03:34:09.199Z,16.03
2023-04-21T03:36:37.483Z,16.57
2023-04-21T03:39:18.796Z,15.47
2023-04-21T03:41:48.780Z,16.27
2023-04-21T03:44:16.790Z,16.67
2023-04-21T03:46:44.900Z,13.87
2023-04-21T03:49:14.272Z,14.30
2023-04-21T03:51:42.328Z,15.43
2023-04-21T03:54:10.370Z,17.07
2023-04-21T03:56:38.421Z,23.50
2023-04-21T03:59:06.721Z,14.60
2023-04-21T04:01:35.502Z,15.97
2023-04-21T04:04:03.944Z,18.10
2023-04-21T04:06:34.076Z,14.83
2023-04-21T04:09:04.480Z,15.13
2023-04-21T04:11:32.907Z,14.63
2023-04-21T04:14:01.311Z,16.33
2023-04-21T04:16:29.900Z,16.93
2023-04-21T04:18:58.317Z,18.33
2023-04-21T04:21:27.545Z,17.43
2023-04-21T04:23:57.571Z,17.77
2023-04-21T04:26:25.791Z,19.67
2023-04-21T04:28:56.191Z,17.30
2023-04-21T04:31:25.400Z,16.23
2023-04-21T04:33:55.534Z,17.47
2023-04-21T04:36:24.126Z,14.00
2023-04-21T04:38:52.424Z,12.97
2023-04-21T04:41:22.645Z,16.37
2023-04-21T04:43:51.093Z,12.53
2023-04-21T04:46:20.660Z,14.63
2023-04-21T04:48:49.162Z,16.63
2023-04-21T04:51:17.338Z,18.17
2023-04-21T04:53:45.392Z,15.80
2023-04-21T04:56:13.447Z,15.87
2023-04-21T04:58:42.846Z,14.10
2023-04-21T05:01:14.412Z,17.53
2023-04-21T05:03:43.030Z,16.90
2023-04-21T05:06:11.338Z,15.30
2023-04-21T05:08:40.237Z,15.60
2023-04-21T05:11:08.736Z,15.27
2023-04-21T05:13:39.607Z,18.40
2023-04-21T05:16:11.384Z,14.77
2023-04-21T05:18:39.602Z,15.70
2023-04-21T05:21:07.773Z,17.03
2023-04-21T05:23:35.812Z,13.67
2023-04-21T05:26:04.628Z,18.00
2023-04-21T05:28:33.238Z,12.90
2023-04-21T05:31:01.357Z,15.87
2023-04-21T05:33:32.001Z,14.20
2023-04-21T05:36:00.193Z,15.10
2023-04-21T05:38:31.284Z,16.23
2023-04-21T05:40:59.288Z,13.40
2023-04-21T05:43:27.428Z,13.20
2023-04-21T05:45:55.556Z,12.53
2023-04-21T05:48:24.408Z,13.03
2023-04-21T05:50:53.764Z,12.70
2023-04-21T05:53:23.423Z,15.47
2023-04-21T05:55:51.718Z,12.80
2023-04-21T05:58:19.761Z,13.97
2023-04-21T06:00:49.201Z,17.07
2023-04-21T06:03:17.700Z,13.67
2023-04-21T06:05:46.046Z,13.07
2023-04-21T06:08:15.522Z,13.63
2023-04-21T06:10:43.547Z,13.63
2023-04-21T06:13:11.530Z,13.77
2023-04-21T06:15:39.624Z,12.83
2023-04-21T06:18:07.801Z,16.37
2023-04-21T06:20:36.013Z,14.47
2023-04-21T06:23:04.535Z,15.87
2023-04-21T06:25:33.998Z,13.40
2023-04-21T06:28:02.095Z,13.83
2023-04-21T06:30:30.121Z,13.70
2023-04-21T06:32:58.213Z,12.53
2023-04-21T06:35:26.348Z,14.33
2023-04-21T06:37:54.408Z,14.50
2023-04-21T06:40:22.430Z,13.53
2023-04-21T06:42:51.814Z,15.00
2023-04-21T06:45:19.823Z,12.07
2023-04-21T06:47:47.869Z,11.80
2023-04-21T06:50:16.363Z,16.53
2023-04-21T06:52:44.399Z,13.07
2023-04-21T06:55:12.635Z,13.47
2023-04-21T06:57:40.692Z,10.67
2023-04-21T07:00:11.650Z,14.73
2023-04-21T07:02:39.796Z,16.13
2023-04-21T07:05:08.478Z,12.53
2023-04-21T07:07:36.587Z,11.47
2023-04-21T07:10:05.007Z,12.70
2023-04-21T07:12:33.040Z,13.37
2023-04-21T07:15:01.105Z,15.17
2023-04-21T07:17:30.549Z,11.03
2023-04-21T07:19:58.583Z,11.97
2023-04-21T07:22:26.697Z,15.80
2023-04-21T07:24:54.720Z,11.67
2023-04-21T07:27:22.747Z,13.87
2023-04-21T07:29:51.017Z,14.60
2023-04-21T07:32:19.039Z,12.73
2023-04-21T07:34:48.431Z,12.13
2023-04-21T07:37:16.543Z,13.30
2023-04-21T07:39:44.601Z,10.63
2023-04-21T07:42:12.632Z,14.10
2023-04-21T07:44:40.848Z,11.60
2023-04-21T07:47:08.893Z,11.27
2023-04-21T07:49:36.962Z,11.30
2023-04-21T07:52:06.534Z,12.47
2023-04-21T07:54:34.567Z,13.37
2023-04-21T07:57:02.761Z,10.33
2023-04-21T07:59:31.261Z,11.60
2023-04-21T08:01:59.486Z,11.97
2023-04-21T08:04:27.635Z,12.80
2023-04-21T08:06:55.922Z,13.67
2023-04-21T08:09:25.443Z,13.20
2023-04-21T08:11:53.953Z,12.33
2023-04-21T08:14:23.409Z,12.93
2023-04-21T08:16:51.501Z,12.87
2023-04-21T08:19:20.013Z,12.20
2023-04-21T08:21:48.645Z,13.43
2023-04-21T08:24:16.764Z,12.73
2023-04-21T08:26:46.200Z,11.10
2023-04-21T08:29:14.372Z,10.43
2023-04-21T08:31:42.599Z,11.50
2023-04-21T08:34:10.991Z,13.37
2023-04-21T08:36:39.181Z,11.60
2023-04-21T08:39:07.217Z,12.43
2023-04-21T08:41:35.637Z,10.43
2023-04-21T08:44:05.987Z,10.27
2023-04-21T08:46:35.005Z,9.70
2023-04-21T08:49:03.920Z,11.90
2023-04-21T08:51:32.352Z,10.17
2023-04-21T08:54:00.432Z,11.00
2023-04-21T08:56:28.675Z,11.23
2023-04-21T08:58:57.071Z,13.73
2023-04-21T09:01:26.578Z,9.47
2023-04-21T09:03:54.801Z,9.17
2023-04-21T09:06:23.519Z,10.37
2023-04-21T09:08:56.561Z,11.37
2023-04-21T09:11:25.604Z,11.33
2023-04-21T09:13:58.754Z,11.97
2023-04-21T09:16:33.166Z,10.70
2023-04-21T09:19:01.805Z,10.83
2023-04-21T09:21:32.430Z,10.23
2023-04-21T09:24:06.673Z,10.33
2023-04-21T09:26:37.051Z,10.50
2023-04-21T09:29:07.563Z,11.00
2023-04-21T09:31:37.541Z,9.90
2023-04-21T09:34:19.627Z,10.37
2023-04-21T09:36:48.233Z,10.33
2023-04-21T09:41:47.339Z,11.87
2023-04-21T09:44:17.646Z,11.97
2023-04-21T09:46:51.183Z,10.57
2023-04-21T09:49:19.678Z,10.03
2023-04-21T09:56:55.002Z,13.27
2023-04-21T09:59:27.635Z,10.20
2023-04-21T10:01:58.753Z,12.97
2023-04-21T10:04:28.942Z,9.97
2023-04-21T10:06:57.570Z,12.50
2023-04-21T10:09:28.044Z,9.67
2023-04-21T10:11:56.709Z,10.47
2023-04-21T10:14:26.798Z,12.70
2023-04-21T10:17:04.643Z,11.33
2023-04-21T10:19:36.268Z,13.20
2023-04-21T10:22:04.305Z,13.30
2023-04-21T10:24:32.584Z,11.10
2023-04-21T10:27:02.100Z,11.03
2023-04-21T10:29:43.754Z,10.43
2023-04-21T10:32:32.865Z,12.70
2023-04-21T10:35:00.921Z,11.83
2023-04-21T10:37:32.652Z,9.27
2023-04-21T10:40:01.711Z,11.40
2023-04-21T10:42:37.594Z,10.20
2023-04-21T10:45:12.759Z,10.93
2023-04-21T10:47:45.186Z,8.50
2023-04-21T10:50:15.749Z,10.33
2023-04-21T10:52:57.618Z,9.70
2023-04-21T10:55:29.047Z,10.33
2023-04-21T10:57:59.065Z,10.60
2023-04-21T11:00:27.300Z,11.83
2023-04-21T11:03:00.697Z,8.83
2023-04-21T11:05:36.049Z,9.77
2023-04-21T11:08:14.725Z,8.10
2023-04-21T11:10:48.979Z,11.13
2023-04-21T11:13:17.073Z,9.00
2023-04-21T11:16:06.910Z,8.20
2023-04-21T11:18:46.347Z,9.63
2023-04-21T11:21:17.990Z,10.83
2023-04-21T11:23:54.123Z,11.93
2023-04-21T11:26:32.691Z,9.97
2023-04-21T11:29:04.508Z,9.27
2023-04-21T11:31:32.690Z,8.23
2023-04-21T11:34:05.136Z,7.90
2023-04-21T11:36:34.136Z,12.20
2023-04-21T11:39:08.113Z,8.87
2023-04-21T11:41:36.686Z,8.20
2023-04-21T11:44:04.822Z,8.87
2023-04-21T11:46:33.459Z,10.03
2023-04-21T11:49:04.622Z,10.67
2023-04-21T11:51:37.140Z,9.03
2023-04-21T11:54:09.442Z,9.77
2023-04-21T11:56:38.922Z,8.47
2023-04-21T11:59:10.857Z,9.50
2023-04-21T12:01:44.529Z,10.93
2023-04-21T12:04:18.013Z,8.80
2023-04-21T12:06:47.458Z,9.70
2023-04-21T12:09:19.995Z,10.27
2023-04-21T12:11:50.147Z,10.80
2023-04-21T12:14:21.885Z,10.03
2023-04-21T12:16:51.313Z,9.47
2023-04-21T12:19:36.992Z,8.13
2023-04-21T12:22:09.403Z,7.87
2023-04-21T12:24:37.609Z,7.03
2023-04-21T12:27:06.665Z,10.53
2023-04-21T12:29:35.650Z,7.70
2023-04-21T12:32:03.960Z,7.57
2023-04-21T12:34:33.595Z,8.03
2023-04-21T12:37:01.950Z,7.37
2023-04-21T12:39:30.489Z,8.57
2023-04-21T12:41:58.827Z,6.97
2023-04-21T12:44:27.102Z,10.13
2023-04-21T12:46:55.443Z,9.17
2023-04-21T12:49:23.457Z,8.47
2023-04-21T12:51:52.968Z,9.77
2023-04-21T12:54:21.040Z,7.37
2023-04-21T12:56:49.117Z,10.20
2023-04-21T12:59:17.161Z,8.90
2023-04-21T13:01:45.278Z,8.97
2023-04-21T13:04:13.603Z,9.23
2023-04-21T13:06:41.744Z,6.87
2023-04-21T13:09:11.428Z,7.00
2023-04-21T13:11:39.862Z,8.40
2023-04-21T13:14:08.319Z,6.63
2023-04-21T13:16:36.456Z,9.20
2023-04-21T13:19:05.187Z,10.73
2023-04-21T13:21:33.270Z,7.57
2023-04-21T13:24:02.246Z,8.30
2023-04-21T13:26:35.075Z,9.50
2023-04-21T13:29:03.705Z,11.13
2023-04-21T13:31:32.460Z,13.27
2023-04-21T13:34:01.165Z,8.03
2023-04-21T13:36:29.272Z,10.10
2023-04-21T13:38:57.324Z,7.37
2023-04-21T13:41:25.351Z,10.20
2023-04-21T13:43:54.733Z,8.53
2023-04-21T13:46:22.901Z,9.93
2023-04-21T13:48:51.709Z,8.90
2023-04-21T13:51:20.094Z,10.47
2023-04-21T13:53:48.146Z,10.90
2023-04-21T13:56:16.314Z,8.53
2023-04-21T13:58:44.482Z,7.43
2023-04-21T14:01:15.470Z,7.50
2023-04-21T14:03:43.706Z,8.67
2023-04-21T14:06:11.946Z,7.27
2023-04-21T14:08:40.370Z,7.13
2023-04-21T14:11:08.411Z,8.20
2023-04-21T14:13:42.119Z,8.83
2023-04-21T14:16:17.579Z,6.63
2023-04-21T14:18:46.571Z,6.90
2023-04-21T14:21:14.687Z,7.10
2023-04-21T14:23:42.805Z,6.97
2023-04-21T14:26:11.885Z,7.70
2023-04-21T14:28:40.639Z,7.90
2023-04-21T14:31:09.021Z,6.43
2023-04-21T14:33:38.743Z,8.20
2023-04-21T14:36:07.496Z,7.27
2023-04-21T14:38:35.868Z,6.93
2023-04-21T14:41:04.883Z,6.77
2023-04-21T14:43:32.957Z,9.07
2023-04-21T14:46:01.654Z,9.37
2023-04-21T14:48:29.812Z,10.27
2023-04-21T14:50:59.473Z,7.87
2023-04-21T14:53:27.630Z,8.20
2023-04-21T14:55:55.651Z,6.80
2023-04-21T14:58:23.803Z,6.87
2023-04-21T15:00:52.024Z,10.40
2023-04-21T15:03:20.390Z,7.63
2023-04-21T15:05:48.678Z,7.97
2023-04-21T15:08:18.335Z,7.93
2023-04-21T15:10:47.566Z,8.03
2023-04-21T15:13:15.680Z,8.63
2023-04-21T15:15:43.868Z,7.63
2023-04-21T15:18:11.938Z,8.50
2023-04-21T15:20:45.303Z,7.63
2023-04-21T15:23:13.927Z,7.00
2023-04-21T15:25:43.485Z,7.30
2023-04-21T15:28:12.972Z,7.37
2023-04-21T15:30:41.123Z,10.20
2023-04-21T15:33:09.284Z,9.77
2023-04-21T15:35:37.296Z,7.40
2023-04-21T15:38:06.016Z,9.50
2023-04-21T15:40:34.105Z,7.70
2023-04-21T15:43:03.544Z,7.20
2023-04-21T15:45:31.541Z,7.40
2023-04-21T15:48:00.073Z,7.03
2023-04-21T15:50:30.007Z,10.27
2023-04-21T15:52:58.026Z,6.97
2023-04-21T15:55:27.842Z,8.37
2023-04-21T15:57:55.948Z,8.10
2023-04-21T16:00:25.632Z,7.80
2023-04-21T16:02:53.928Z,8.47
2023-04-21T16:05:24.480Z,8.37
2023-04-21T16:07:54.442Z,9.10
2023-04-21T16:10:22.476Z,6.70
2023-04-21T16:12:51.094Z,9.77
2023-04-21T16:15:24.306Z,6.73
2023-04-21T16:17:54.726Z,7.87
2023-04-21T16:20:22.902Z,8.60
2023-04-21T16:22:51.215Z,7.47
2023-04-21T16:25:20.055Z,8.33
2023-04-21T16:27:48.245Z,8.07
2023-04-21T16:30:16.558Z,6.97
2023-04-21T16:32:44.676Z,10.57
2023-04-21T16:35:14.053Z,7.53
2023-04-21T16:37:42.745Z,8.73
2023-04-21T16:40:12.153Z,7.77
2023-04-21T16:42:40.577Z,8.80
2023-04-21T16:45:09.515Z,7.80
2023-04-21T16:47:41.696Z,6.90
2023-04-21T16:50:10.836Z,8.00
2023-04-21T16:52:40.453Z,8.70
2023-04-21T16:55:09.415Z,7.13
2023-04-21T16:57:37.536Z,7.50
2023-04-21T17:00:07.851Z,6.80
2023-04-21T17:02:36.127Z,9.93
2023-04-21T17:05:04.463Z,8.17
2023-04-21T17:07:32.598Z,10.77
2023-04-21T17:10:02.223Z,10.23
2023-04-21T17:12:30.433Z,10.00
2023-04-21T17:14:58.983Z,6.70
2023-04-21T17:17:27.168Z,9.00
2023-04-21T17:19:55.238Z,7.43
2023-04-21T17:22:23.252Z,8.33
2023-04-21T17:24:53.170Z,6.90
2023-04-21T17:27:23.356Z,8.53
2023-04-21T17:29:51.515Z,9.53
2023-04-21T17:32:19.997Z,10.50
2023-04-21T17:34:48.166Z,9.67
2023-04-21T17:37:16.544Z,7.40
2023-04-21T17:39:44.580Z,7.90
2023-04-21T17:42:12.670Z,8.70
2023-04-21T17:44:42.125Z,6.90
2023-04-21T17:47:10.440Z,8.10
2023-04-21T17:49:38.616Z,8.33
2023-04-21T17:52:07.105Z,7.67
2023-04-21T17:54:35.213Z,6.97
2023-04-21T17:57:03.467Z,10.53
2023-04-21T17:59:31.761Z,6.67
2023-04-21T18:02:01.200Z,8.70
2023-04-21T18:04:30.768Z,7.40
2023-04-21T18:06:59.576Z,8.57
2023-04-21T18:09:27.935Z,7.20
2023-04-21T18:11:56.337Z,12.87
2023-04-21T18:14:24.830Z,8.57
2023-04-21T18:16:52.861Z,7.60
2023-04-21T18:19:22.321Z,8.23
2023-04-21T18:21:50.483Z,7.60
2023-04-21T18:24:18.695Z,7.70
2023-04-21T18:26:46.988Z,10.20
2023-04-21T18:29:17.615Z,12.83
2023-04-21T18:31:46.124Z,9.77
2023-04-21T18:34:15.108Z,8.33
2023-04-21T18:36:44.485Z,10.83
2023-04-21T18:39:12.743Z,12.00
2023-04-21T18:41:40.949Z,8.87
2023-04-21T18:44:09.024Z,7.63
2023-04-21T18:46:37.093Z,9.13
2023-04-21T18:49:05.925Z,8.13
2023-04-21T18:51:34.429Z,7.33
2023-04-21T18:54:04.904Z,9.30
2023-04-21T18:56:33.560Z,8.53
2023-04-21T18:59:01.913Z,11.20
2023-04-21T19:01:30.150Z,9.43
2023-04-21T19:03:59.728Z,7.10
2023-04-21T19:06:29.212Z,9.47
2023-04-21T19:08:58.131Z,10.50
2023-04-21T19:11:27.649Z,9.07
2023-04-21T19:13:55.739Z,9.33
2023-04-21T19:16:23.882Z,8.50
2023-04-21T19:18:52.226Z,8.70
2023-04-21T19:21:20.313Z,12.10
2023-04-21T19:23:48.617Z,10.83
2023-04-21T19:26:18.218Z,11.00
2023-04-21T19:28:47.628Z,9.60
2023-04-21T19:31:19.086Z,10.37
2023-04-21T19:33:47.765Z,9.53
2023-04-21T19:36:15.876Z,8.40
2023-04-21T19:38:44.451Z,8.50
2023-04-21T19:41:13.196Z,10.27
2023-04-21T19:43:41.211Z,7.73
2023-04-21T19:46:11.022Z,10.03
2023-04-21T19:48:41.328Z,8.50
2023-04-21T19:51:10.745Z,9.70
2023-04-21T19:53:38.822Z,14.07
2023-04-21T19:56:07.235Z,10.03
2023-04-21T19:58:40.671Z,9.33
2023-04-21T20:01:10.604Z,9.67
2023-04-21T20:03:38.901Z,8.90
2023-04-21T20:06:07.467Z,9.73
2023-04-21T20:08:36.587Z,8.63
2023-04-21T20:11:04.692Z,10.13
2023-04-21T20:13:32.742Z,9.10
2023-04-21T20:16:00.989Z,9.53
2023-04-21T20:18:31.808Z,12.23
2023-04-21T20:21:00.004Z,8.60
2023-04-21T20:23:29.026Z,9.93
2023-04-21T20:25:58.262Z,10.17
2023-04-21T20:28:27.556Z,15.77
2023-04-21T20:30:56.793Z,9.47
2023-04-21T20:33:24.812Z,9.50
2023-04-21T20:35:55.206Z,8.03
2023-04-21T20:38:24.584Z,11.23
2023-04-21T20:40:53.156Z,9.60
2023-04-21T20:43:21.367Z,9.03
2023-04-21T20:45:50.305Z,9.50
2023-04-21T20:48:18.992Z,10.43
2023-04-21T20:50:49.833Z,13.00
2023-04-21T20:53:20.956Z,9.93
2023-04-21T20:55:49.100Z,8.60
2023-04-21T20:58:17.133Z,8.47
2023-04-21T21:00:45.399Z,11.40
2023-04-21T21:03:13.942Z,9.67
2023-04-21T21:05:42.231Z,10.43
2023-04-21T21:08:10.250Z,8.93
2023-04-21T21:10:39.707Z,10.97
2023-04-21T21:13:07.788Z,10.70
2023-04-21T21:15:36.108Z,8.50
2023-04-21T21:18:04.841Z,9.07
2023-04-21T21:20:32.933Z,7.73
2023-04-21T21:23:00.948Z,8.37
2023-04-21T21:25:29.026Z,8.50
2023-04-21T21:27:58.398Z,8.87
2023-04-21T21:30:26.448Z,9.87
2023-04-21T21:32:55.285Z,6.73
2023-04-21T21:35:23.698Z,8.80
2023-04-21T21:37:51.799Z,8.07
2023-04-21T21:40:19.940Z,7.30
2023-04-21T21:42:47.959Z,7.67
2023-04-21T21:45:18.313Z,5.97
2023-04-21T21:47:47.211Z,5.40
2023-04-21T21:50:15.854Z,7.40
2023-04-21T21:52:44.325Z,6.53
2023-04-21T21:55:12.467Z,7.53
2023-04-21T21:57:40.588Z,7.20
2023-04-21T22:00:13.959Z,6.00
2023-04-21T22:02:44.149Z,8.07
2023-04-21T22:05:13.865Z,7.30
2023-04-21T22:07:43.082Z,5.00
2023-04-21T22:10:11.996Z,8.17
2023-04-21T22:12:41.139Z,6.20
2023-04-21T22:15:10.368Z,8.70
2023-04-21T22:17:38.734Z,6.97
2023-04-21T22:20:09.408Z,6.83
2023-04-21T22:22:37.545Z,6.00
2023-04-21T22:25:06.181Z,8.23
2023-04-21T22:27:34.240Z,5.60
2023-04-21T22:30:03.584Z,5.67
2023-04-21T22:32:32.417Z,7.83
2023-04-21T22:35:00.624Z,6.70
2023-04-21T22:37:30.187Z,6.30
2023-04-21T22:39:58.818Z,5.93
2023-04-21T22:42:27.043Z,5.60
2023-04-21T22:44:55.081Z,6.70
2023-04-21T22:47:23.673Z,5.93
2023-04-21T22:49:53.354Z,5.13
2023-04-21T22:52:21.467Z,7.20
2023-04-21T22:54:50.877Z,7.13
2023-04-21T22:57:19.119Z,5.43
2023-04-21T22:59:47.172Z,5.97
2023-04-21T23:02:15.489Z,7.47
2023-04-21T23:04:43.599Z,6.47
2023-04-21T23:07:11.645Z,5.90
2023-04-21T23:09:39.953Z,5.30
2023-04-21T23:12:09.814Z,4.77
2023-04-21T23:14:37.908Z,7.37
2023-04-21T23:17:05.999Z,6.07
2023-04-21T23:19:34.015Z,8.43
2023-04-21T23:22:02.160Z,5.80
2023-04-21T23:24:30.190Z,6.23
2023-04-21T23:26:58.193Z,4.60
2023-04-21T23:29:27.616Z,6.50
2023-04-21T23:31:55.656Z,5.37
2023-04-21T23:34:23.684Z,6.77
2023-04-21T23:36:51.740Z,4.87
2023-04-21T23:39:21.540Z,6.23
2023-04-21T23:41:49.769Z,6.53
2023-04-21T23:44:17.874Z,6.00
2023-04-21T23:46:47.224Z,4.73
2023-04-21T23:49:15.265Z,4.20
2023-04-21T23:51:43.324Z,4.73
2023-04-21T23:54:11.438Z,5.07
2023-04-21T23:56:39.445Z,5.73
2023-04-21T23:59:07.513Z,4.67
